createdAt,value
2019-04-01T09:17:58.728Z,3341.25
2019-04-01T09:18:58.962Z,3054.38
2019-04-01T09:19:59.090Z,2458.12
2019-04-01T09:21:00.362Z,2098.12
2019-04-01T09:22:00.568Z,1946.25
2019-04-01T09:23:00.772Z,1726.88
2019-04-01T09:24:01.007Z,1501.88
2019-04-01T09:25:01.236Z,1203.75
2019-04-01T09:26:01.335Z,1023.75
2019-04-01T09:27:02.567Z,961.88
2019-04-01T09:28:01.789Z,1046.25
2019-04-01T09:29:02.035Z,1085.62
2019-04-01T09:30:02.180Z,1096.88
2019-04-01T09:31:02.304Z,1035.00
2019-04-01T09:32:02.968Z,967.50
2019-04-01T09:33:02.572Z,843.75
2019-04-01T09:34:02.714Z,731.25
2019-04-01T09:35:02.830Z,680.62
2019-04-01T09:36:03.092Z,675.00
2019-04-01T09:37:03.970Z,585.00
2019-04-01T09:38:03.420Z,596.25
2019-04-01T09:39:03.973Z,624.38
2019-04-01T09:40:03.847Z,697.50
2019-04-01T09:41:04.967Z,680.62
2019-04-01T09:42:04.295Z,703.12
2019-04-01T09:43:04.421Z,759.38
2019-04-01T09:44:04.675Z,714.38
2019-04-01T09:45:04.804Z,742.50
2019-04-01T09:46:04.947Z,781.88
2019-04-01T09:47:05.981Z,781.88
2019-04-01T09:48:05.200Z,776.25
2019-04-01T09:49:05.325Z,765.00
2019-04-01T09:50:05.558Z,753.75
2019-04-01T09:51:05.980Z,748.12
2019-04-01T09:52:06.888Z,742.50
2019-04-01T09:53:05.989Z,725.62
2019-04-01T09:54:06.983Z,714.38
2019-04-01T09:55:06.647Z,691.88
2019-04-01T09:56:06.585Z,646.88
2019-04-01T09:57:17.164Z,669.38
2019-04-01T09:58:08.897Z,680.62
2019-04-01T09:59:07.106Z,669.38
2019-04-01T10:00:07.965Z,663.75
2019-04-01T10:01:07.459Z,669.38
2019-04-01T10:02:08.485Z,652.50
2019-04-01T10:03:07.863Z,641.25
2019-04-01T10:04:08.010Z,635.62
2019-04-01T10:05:08.145Z,630.00
2019-04-01T10:06:10.448Z,624.38
2019-04-01T10:07:09.490Z,613.12
2019-04-01T10:08:09.010Z,613.12
2019-04-01T10:09:08.879Z,601.88
2019-04-01T10:10:09.975Z,601.88
2019-04-01T10:11:12.470Z,585.00
2019-04-01T10:12:09.329Z,579.38
2019-04-01T10:13:09.504Z,545.62
2019-04-01T10:14:09.666Z,472.50
2019-04-01T10:15:09.792Z,433.12
2019-04-01T10:16:09.923Z,438.75
2019-04-01T10:17:10.969Z,489.38
2019-04-01T10:18:10.352Z,528.75
2019-04-01T10:19:10.524Z,534.38
2019-04-01T10:20:10.652Z,523.12
2019-04-01T10:21:10.807Z,528.75
2019-04-01T10:22:10.946Z,528.75
2019-04-01T10:23:11.159Z,517.50
2019-04-01T10:24:11.312Z,500.62
2019-04-01T10:25:11.491Z,489.38
2019-04-01T10:26:11.656Z,489.38
2019-04-01T10:27:12.487Z,483.75
2019-04-01T10:28:12.501Z,472.50
2019-04-01T10:29:12.995Z,483.75
2019-04-01T10:30:12.385Z,472.50
2019-04-01T10:31:12.514Z,489.38
2019-04-01T10:32:12.778Z,489.38
2019-04-01T10:33:13.508Z,489.38
2019-04-01T10:34:13.129Z,483.75
2019-04-01T10:35:13.274Z,483.75
2019-04-01T10:36:13.523Z,478.12
2019-04-01T10:37:13.789Z,472.50
2019-04-01T10:38:14.488Z,466.88
2019-04-01T10:39:13.955Z,466.88
2019-04-01T10:40:14.110Z,461.25
2019-04-01T10:41:14.514Z,455.62
2019-04-01T10:42:14.404Z,455.62
2019-04-01T10:43:15.491Z,455.62
2019-04-01T10:44:14.717Z,450.00
2019-04-01T10:45:15.495Z,455.62
2019-04-01T10:46:15.491Z,450.00
2019-04-01T10:47:15.539Z,450.00
2019-04-01T10:48:15.436Z,455.62
2019-04-01T10:49:16.524Z,450.00
2019-04-01T10:50:15.678Z,444.38
2019-04-01T10:51:16.569Z,438.75
2019-04-01T10:52:16.160Z,438.75
2019-04-01T10:53:16.345Z,438.75
2019-04-01T10:54:16.489Z,427.50
2019-04-01T10:55:16.668Z,427.50
2019-04-01T10:56:16.738Z,427.50
2019-04-01T10:57:16.882Z,421.88
2019-04-01T10:58:17.101Z,421.88
2019-04-01T10:59:17.249Z,416.25
2019-04-01T11:00:17.395Z,410.62
2019-04-01T11:01:18.516Z,416.25
2019-04-01T11:02:39.567Z,405.00
2019-04-01T11:03:18.003Z,410.62
2019-04-01T11:04:19.012Z,399.38
2019-04-01T11:29:08.970Z,331.88
2019-04-01T11:29:54.599Z,326.25
2019-04-01T11:30:54.774Z,320.62
2019-04-01T11:31:54.891Z,320.62
2019-04-01T11:32:56.273Z,320.62
2019-04-01T11:33:56.374Z,320.62
2019-04-01T11:34:56.571Z,326.25
2019-04-01T11:35:56.689Z,326.25
2019-04-01T11:36:57.125Z,320.62
2019-04-01T11:37:57.150Z,326.25
2019-04-01T11:38:57.319Z,320.62
2019-04-01T11:39:57.438Z,320.62
2019-04-01T11:40:57.698Z,320.62
2019-04-01T11:42:01.286Z,320.62
2019-04-01T11:42:58.017Z,320.62
2019-04-01T11:43:58.165Z,320.62
2019-04-01T11:44:58.348Z,326.25
2019-04-01T11:45:58.508Z,320.62
2019-04-01T11:46:58.742Z,320.62
2019-04-01T11:47:58.794Z,326.25
2019-04-01T11:48:58.971Z,326.25
2019-04-01T11:49:59.631Z,320.62
2019-04-01T11:50:59.322Z,320.62
2019-04-01T11:51:59.534Z,326.25
2019-04-01T11:53:00.602Z,320.62
2019-04-01T11:53:59.833Z,320.62
2019-04-01T11:54:59.983Z,326.25
2019-04-01T11:56:00.173Z,326.25
2019-04-01T11:57:00.319Z,326.25
2019-04-01T11:58:00.468Z,331.88
2019-04-01T11:59:00.619Z,326.25
2019-04-01T12:00:00.758Z,326.25
2019-04-01T12:01:00.943Z,326.25
2019-04-01T12:02:01.094Z,326.25
2019-04-01T12:03:01.255Z,320.62
2019-04-01T12:04:01.402Z,320.62
2019-04-01T12:05:01.563Z,326.25
2019-04-01T12:06:01.740Z,320.62
2019-04-01T12:07:02.299Z,320.62
2019-04-01T12:08:03.095Z,320.62
2019-04-01T12:09:02.229Z,320.62
2019-04-01T12:10:02.389Z,320.62
2019-04-01T12:11:02.597Z,320.62
2019-04-01T12:12:03.737Z,320.62
2019-04-01T12:13:02.961Z,320.62
2019-04-01T12:14:05.073Z,320.62
2019-04-01T12:15:05.098Z,320.62
2019-04-01T12:16:03.464Z,320.62
2019-04-01T12:17:04.612Z,320.62
2019-04-01T12:18:04.100Z,320.62
2019-04-01T12:19:04.980Z,320.62
2019-04-01T12:20:04.222Z,320.62
2019-04-01T12:21:05.106Z,320.62
2019-04-01T12:22:04.630Z,320.62
2019-04-01T12:23:05.127Z,320.62
2019-04-01T12:24:04.766Z,320.62
2019-04-01T12:25:04.996Z,320.62
2019-04-01T12:26:14.958Z,320.62
2019-04-01T12:27:07.405Z,315.00
2019-04-01T12:28:05.591Z,315.00
2019-04-01T12:29:05.718Z,320.62
2019-04-01T12:30:05.871Z,315.00
2019-04-01T12:31:06.068Z,315.00
2019-04-01T12:32:06.237Z,315.00
2019-04-01T12:33:06.384Z,315.00
2019-04-01T12:34:06.568Z,315.00
2019-04-01T12:35:06.700Z,315.00
2019-04-01T12:36:11.332Z,315.00
2019-04-01T12:37:07.070Z,315.00
2019-04-01T12:38:08.210Z,315.00
2019-04-01T12:39:07.470Z,315.00
2019-04-01T12:40:08.107Z,315.00
2019-04-01T12:41:07.719Z,315.00
2019-04-01T12:42:07.850Z,309.38
2019-04-01T12:43:07.999Z,309.38
2019-04-01T12:44:08.148Z,309.38
2019-04-01T12:45:08.282Z,309.38
2019-04-01T12:46:08.812Z,309.38
2019-04-01T12:47:08.684Z,309.38
2019-04-01T12:48:08.852Z,309.38
2019-04-01T12:49:09.987Z,309.38
2019-04-01T12:50:09.214Z,309.38
2019-04-01T12:51:10.138Z,309.38
2019-04-01T12:52:42.410Z,303.75
2019-04-01T12:53:09.673Z,303.75
2019-04-01T12:54:09.810Z,303.75
2019-04-01T12:55:09.954Z,303.75
2019-04-01T12:56:10.149Z,303.75
2019-04-01T12:57:10.294Z,303.75
2019-04-01T12:58:10.457Z,303.75
2019-04-01T12:59:10.557Z,303.75
2019-04-01T13:00:10.709Z,303.75
2019-04-01T13:01:11.164Z,303.75
2019-04-01T13:02:11.660Z,303.75
2019-04-01T13:03:11.189Z,303.75
2019-04-01T13:04:12.156Z,303.75
2019-04-01T13:05:11.516Z,309.38
2019-04-01T13:06:11.640Z,303.75
2019-04-01T13:07:11.774Z,303.75
2019-04-01T13:08:11.954Z,303.75
2019-04-01T13:09:12.125Z,303.75
2019-04-01T13:10:12.275Z,303.75
2019-04-01T13:11:12.530Z,303.75
2019-04-01T13:12:13.654Z,303.75
2019-04-01T13:13:13.663Z,303.75
2019-04-01T13:14:13.803Z,303.75
2019-04-01T13:15:13.314Z,303.75
2019-04-01T13:16:13.408Z,303.75
2019-04-01T13:17:13.575Z,309.38
2019-04-01T13:18:13.730Z,303.75
2019-04-01T13:19:13.884Z,303.75
2019-04-01T13:20:14.414Z,298.12
2019-04-01T13:21:14.258Z,298.12
2019-04-01T13:22:15.158Z,298.12
2019-04-01T13:23:15.162Z,298.12
2019-04-01T13:24:15.650Z,298.12
2019-04-01T13:25:14.912Z,298.12
2019-04-01T13:26:15.043Z,298.12
2019-04-01T13:27:15.178Z,298.12
2019-04-01T13:28:15.356Z,292.50
2019-04-01T13:29:15.540Z,292.50
2019-04-01T13:30:15.655Z,292.50
2019-04-01T13:31:16.653Z,292.50
2019-04-01T13:32:16.046Z,292.50
2019-04-01T13:33:16.978Z,292.50
2019-04-01T13:34:19.896Z,292.50
2019-04-01T13:35:16.494Z,292.50
2019-04-01T13:36:16.694Z,292.50
2019-04-01T13:37:18.422Z,292.50
2019-04-01T13:38:17.036Z,292.50
2019-04-01T13:39:17.214Z,286.88
2019-04-01T13:40:19.657Z,286.88
2019-04-01T13:41:18.602Z,286.88
2019-04-01T13:42:17.792Z,286.88
2019-04-01T13:43:18.665Z,286.88
2019-04-01T13:44:18.211Z,286.88
2019-04-01T13:45:18.375Z,286.88
2019-04-01T13:46:19.235Z,286.88
2019-04-01T13:47:19.686Z,286.88
2019-04-01T13:48:19.594Z,286.88
2019-04-01T13:49:19.112Z,286.88
2019-04-01T13:50:19.258Z,281.25
2019-04-01T13:51:19.422Z,281.25
2019-04-01T13:52:20.163Z,281.25
2019-04-01T13:53:20.669Z,281.25
2019-04-01T13:54:20.663Z,281.25
2019-04-01T13:55:20.102Z,281.25
2019-04-01T13:56:20.301Z,281.25
2019-04-01T13:57:20.438Z,281.25
2019-04-01T13:58:20.590Z,281.25
2019-04-01T13:59:21.715Z,281.25
2019-04-01T14:00:22.777Z,275.62
2019-04-01T14:01:21.056Z,275.62
2019-04-01T14:02:21.302Z,275.62
2019-04-01T14:03:22.438Z,275.62
2019-04-01T14:04:22.655Z,275.62
2019-04-01T14:05:21.878Z,275.62
2019-04-01T14:06:22.572Z,275.62
2019-04-01T14:07:22.140Z,281.25
2019-04-01T14:08:22.690Z,270.00
2019-04-01T14:09:22.537Z,281.25
2019-04-01T14:10:22.772Z,275.62
2019-04-01T14:11:22.898Z,275.62
2019-04-01T14:12:23.137Z,281.25
2019-04-01T14:13:23.408Z,275.62
2019-04-01T14:14:24.684Z,275.62
2019-04-01T14:15:23.655Z,275.62
2019-04-01T14:16:23.767Z,275.62
2019-04-01T14:17:23.995Z,275.62
2019-04-01T14:18:24.230Z,275.62
2019-04-01T14:19:24.382Z,275.62
2019-04-01T14:20:24.495Z,275.62
2019-04-01T14:21:25.626Z,275.62
2019-04-01T14:22:24.832Z,270.00
2019-04-01T14:23:26.016Z,270.00
2019-04-01T14:24:25.188Z,270.00
2019-04-01T14:25:25.379Z,270.00
2019-04-01T14:26:25.575Z,270.00
2019-04-01T14:27:25.720Z,270.00
2019-04-01T14:28:25.881Z,270.00
2019-04-01T14:29:26.668Z,270.00
2019-04-01T14:30:26.677Z,270.00
2019-04-01T14:31:26.685Z,264.38
2019-04-01T14:32:26.537Z,264.38
2019-04-01T14:33:27.173Z,264.38
2019-04-01T14:34:26.854Z,270.00
2019-04-01T14:35:27.078Z,264.38
2019-04-01T14:36:27.087Z,264.38
2019-04-01T14:37:29.930Z,264.38
2019-04-01T14:38:28.367Z,264.38
2019-04-01T14:39:27.600Z,264.38
2019-04-01T14:40:27.741Z,264.38
2019-04-01T14:41:27.899Z,258.75
2019-04-01T14:42:28.033Z,258.75
2019-04-01T14:43:30.988Z,258.75
2019-04-01T14:44:28.354Z,258.75
2019-04-01T14:45:28.591Z,258.75
2019-04-01T14:46:28.761Z,258.75
2019-04-01T14:47:28.924Z,253.12
2019-04-01T14:48:30.595Z,253.12
2019-04-01T14:49:29.681Z,253.12
2019-04-01T14:50:29.690Z,253.12
2019-04-01T14:51:30.462Z,253.12
2019-04-01T14:52:32.725Z,253.12
2019-04-01T14:53:30.867Z,253.12
2019-04-01T14:54:30.101Z,253.12
2019-04-01T14:55:31.371Z,253.12
2019-04-01T14:56:30.349Z,253.12
2019-04-01T14:57:30.479Z,253.12
2019-04-01T14:58:30.603Z,258.75
2019-04-01T14:59:30.760Z,253.12
2019-04-01T15:00:31.694Z,253.12
2019-04-01T15:01:31.682Z,253.12
2019-04-01T15:02:31.288Z,247.50
2019-04-01T15:03:31.488Z,247.50
2019-04-01T15:04:31.648Z,241.88
2019-04-01T15:05:31.768Z,247.50
2019-04-01T15:06:31.879Z,241.88
2019-04-01T15:07:32.677Z,241.88
2019-04-01T15:08:32.685Z,241.88
2019-04-01T15:09:32.336Z,241.88
2019-04-01T15:10:33.183Z,241.88
2019-04-01T15:11:32.695Z,241.88
2019-04-01T15:12:32.855Z,241.88
2019-04-01T15:13:33.206Z,241.88
2019-04-01T15:14:33.227Z,241.88
2019-04-01T15:15:34.194Z,236.25
2019-04-01T15:16:34.202Z,236.25
2019-04-01T15:17:36.879Z,236.25
2019-04-01T15:18:34.962Z,236.25
2019-04-01T15:19:34.072Z,236.25
2019-04-01T15:20:34.215Z,236.25
2019-04-01T15:21:34.401Z,230.62
2019-04-01T15:22:34.597Z,236.25
2019-04-01T15:23:34.736Z,230.62
2019-04-01T15:24:34.898Z,230.62
2019-04-01T15:25:35.073Z,230.62
2019-04-01T15:26:35.260Z,230.62
2019-04-01T15:27:35.395Z,230.62
2019-04-01T15:28:35.557Z,230.62
2019-04-01T15:29:36.200Z,230.62
2019-04-01T15:30:36.689Z,230.62
2019-04-01T15:31:36.067Z,230.62
2019-04-01T15:32:36.202Z,230.62
2019-04-01T15:33:37.186Z,225.00
2019-04-01T15:34:36.592Z,225.00
2019-04-01T15:35:37.695Z,225.00
2019-04-01T15:36:36.980Z,225.00
2019-04-01T15:37:37.205Z,225.00
2019-04-01T15:38:38.203Z,225.00
2019-04-01T15:39:37.567Z,219.38
2019-04-01T15:40:37.708Z,219.38
2019-04-01T15:41:37.827Z,219.38
2019-04-01T15:42:38.065Z,219.38
2019-04-01T15:43:38.705Z,219.38
2019-04-01T15:44:38.348Z,219.38
2019-04-01T15:45:38.518Z,213.75
2019-04-01T15:46:38.689Z,213.75
2019-04-01T15:47:38.897Z,213.75
2019-04-01T15:48:39.020Z,213.75
2019-04-01T15:49:40.148Z,213.75
2019-04-01T15:50:39.374Z,213.75
2019-04-01T15:51:40.198Z,208.12
2019-04-01T15:52:39.674Z,208.12
2019-04-01T15:53:39.828Z,208.12
2019-04-01T15:54:39.963Z,208.12
2019-04-01T15:55:40.101Z,208.12
2019-04-01T15:56:41.972Z,202.50
2019-04-01T15:57:41.488Z,202.50
2019-04-01T15:58:40.588Z,202.50
2019-04-01T15:59:40.740Z,202.50
2019-04-01T16:04:56.349Z,196.88
2019-04-01T16:05:36.451Z,196.88
2019-04-01T16:06:36.822Z,196.88
2019-04-01T16:07:37.014Z,191.25
2019-04-01T16:08:37.231Z,191.25
2019-04-01T16:38:48.275Z,151.88
2019-04-01T16:39:48.909Z,151.88
2019-04-01T16:40:52.348Z,151.88
2019-04-01T16:41:50.574Z,151.88
2019-04-01T16:42:51.238Z,146.25
2019-04-01T16:43:51.030Z,146.25
2019-04-01T16:44:53.965Z,146.25
2019-04-01T16:45:51.532Z,140.62
2019-04-01T16:46:50.868Z,140.62
2019-04-01T16:47:51.051Z,140.62
2019-04-01T16:48:51.160Z,135.00
2019-04-01T16:49:51.403Z,135.00
2019-04-01T16:50:51.623Z,135.00
2019-04-01T16:51:51.870Z,129.38
2019-04-01T16:52:52.129Z,129.38
2019-04-01T16:53:52.242Z,129.38
2019-04-01T16:54:52.494Z,123.75
2019-04-01T16:55:52.605Z,123.75
2019-04-01T16:56:52.811Z,123.75
2019-04-01T16:57:53.040Z,118.12
2019-04-01T16:58:53.309Z,118.12
2019-04-01T16:59:53.419Z,118.12
2019-04-01T17:00:54.950Z,112.50
2019-04-01T17:01:53.787Z,112.50
2019-04-01T17:02:53.910Z,118.12
2019-04-01T17:03:54.553Z,106.88
2019-04-01T17:04:55.040Z,106.88
2019-04-01T17:05:54.536Z,106.88
2019-04-01T17:06:54.508Z,101.25
2019-04-01T17:07:54.730Z,101.25
2019-04-01T17:08:54.976Z,106.88
2019-04-01T17:09:58.114Z,95.62
2019-04-01T17:10:56.014Z,95.62
2019-04-01T17:11:56.555Z,90.00
2019-04-01T17:12:55.512Z,90.00
2019-04-01T17:13:56.532Z,106.88
2019-04-01T17:14:55.867Z,112.50
2019-04-01T17:15:55.999Z,90.00
2019-04-01T17:16:56.545Z,90.00
2019-04-01T17:17:56.275Z,84.38
2019-04-01T17:18:57.795Z,84.38
2019-04-01T17:19:58.540Z,84.38
2019-04-01T17:20:56.738Z,78.75
2019-04-01T17:21:56.883Z,78.75
2019-04-01T17:22:57.061Z,73.12
2019-04-01T17:23:59.290Z,73.12
2019-04-01T17:24:57.731Z,73.12
2019-04-01T17:25:57.522Z,67.50
2019-04-01T17:26:57.682Z,67.50
2019-04-01T17:27:58.552Z,61.88
2019-04-01T17:28:57.953Z,61.88
2019-04-01T17:29:58.095Z,61.88
2019-04-01T17:30:58.234Z,56.25
2019-04-01T17:31:58.389Z,56.25
2019-04-01T17:32:58.554Z,56.25
2019-04-01T17:33:59.055Z,50.62
2019-04-01T17:34:58.938Z,50.62
2019-04-01T17:35:59.063Z,50.62
2019-04-01T17:37:01.161Z,45.00
2019-04-01T17:38:01.075Z,45.00
2019-04-01T17:38:59.565Z,39.38
2019-04-01T17:39:59.701Z,39.38
2019-04-01T17:40:59.852Z,39.38
2019-04-01T17:41:59.981Z,39.38
2019-04-01T17:43:00.117Z,45.00
2019-04-01T17:44:00.254Z,50.62
2019-04-01T17:45:00.366Z,45.00
2019-04-01T17:46:00.484Z,45.00
2019-04-01T17:47:00.720Z,39.38
2019-04-01T17:48:01.554Z,33.75
2019-04-01T17:49:01.324Z,28.12
2019-04-01T17:50:01.519Z,22.50
2019-04-01T17:51:01.536Z,22.50
2019-04-01T17:52:04.203Z,16.88
2019-04-01T17:53:01.790Z,16.88
2019-04-01T17:54:01.922Z,16.88
2019-04-01T17:55:02.038Z,16.88
2019-04-01T17:56:02.582Z,11.25
2019-04-01T17:57:02.344Z,11.25
2019-04-01T17:58:02.476Z,11.25
2019-04-01T17:59:02.709Z,11.25
2019-04-01T18:00:02.858Z,5.62
2019-04-01T18:01:02.997Z,5.62
2019-04-01T18:02:03.109Z,5.62
2019-04-01T18:03:04.172Z,5.62
2019-04-01T18:04:04.060Z,5.62
2019-04-01T18:05:04.582Z,5.62
2019-04-01T18:06:04.063Z,5.62
2019-04-01T18:07:03.919Z,0.00
2019-04-01T18:08:04.994Z,0.00
2019-04-01T18:09:05.045Z,0.00
2019-04-01T18:10:04.498Z,0.00
2019-04-01T18:11:04.766Z,0.00
2019-04-01T18:12:05.560Z,0.00
2019-04-01T18:13:05.053Z,0.00
2019-04-01T18:14:06.047Z,0.00
2019-04-01T18:15:05.371Z,0.00
2019-04-01T18:16:05.595Z,0.00
2019-04-01T18:17:06.840Z,0.00
2019-04-01T18:18:06.076Z,0.00
2019-04-01T18:19:07.252Z,0.00
2019-04-01T18:20:06.342Z,0.00
2019-04-01T18:21:06.481Z,0.00
2019-04-01T18:22:09.975Z,0.00
2019-04-01T18:23:07.783Z,0.00
2019-04-01T18:24:06.990Z,0.00
2019-04-01T18:25:07.258Z,0.00
2019-04-01T18:26:08.075Z,0.00
2019-04-01T18:27:07.551Z,0.00
2019-04-01T18:28:07.700Z,0.00
2019-04-01T18:29:09.932Z,0.00
2019-04-01T18:30:07.965Z,0.00
2019-04-01T18:31:08.090Z,0.00
2019-04-01T18:32:08.576Z,0.00
2019-04-01T18:33:09.054Z,0.00
2019-04-01T18:34:08.627Z,0.00
2019-04-01T18:35:09.563Z,0.00
2019-04-01T18:36:08.919Z,0.00
2019-04-01T18:37:09.151Z,0.00
2019-04-01T18:38:09.272Z,0.00
2019-04-01T18:39:10.062Z,0.00
2019-04-01T18:40:09.538Z,0.00
2019-04-01T18:41:09.672Z,0.00
2019-04-01T18:42:10.580Z,0.00
2019-04-01T18:43:09.966Z,0.00
2019-04-01T18:44:10.109Z,0.00
2019-04-01T18:45:10.253Z,0.00
2019-04-01T18:46:10.424Z,0.00
2019-04-01T18:47:10.573Z,0.00
2019-04-01T18:48:14.289Z,0.00
2019-04-01T18:49:10.854Z,0.00
2019-04-01T18:50:11.557Z,0.00
2019-04-01T18:51:11.908Z,0.00
2019-04-01T18:52:11.307Z,0.00
2019-04-01T18:53:11.567Z,0.00
2019-04-01T18:54:11.785Z,0.00
2019-04-01T18:55:12.030Z,0.00
2019-04-01T18:56:12.261Z,0.00
2019-04-01T18:57:12.467Z,0.00
2019-04-01T18:58:12.733Z,0.00
2019-04-01T18:59:12.824Z,0.00
2019-04-01T19:00:13.053Z,0.00
2019-04-01T19:01:14.106Z,0.00
2019-04-01T19:02:13.593Z,0.00
2019-04-01T19:03:13.624Z,0.00
2019-04-01T19:04:14.086Z,0.00
2019-04-01T19:05:14.563Z,0.00
2019-04-01T19:06:14.159Z,0.00
2019-04-01T19:07:15.062Z,0.00
2019-04-01T19:08:14.411Z,0.00
2019-04-01T19:09:14.587Z,0.00
2019-04-01T19:10:14.700Z,0.00
2019-04-01T19:11:14.815Z,0.00
2019-04-01T19:12:14.945Z,0.00
2019-04-01T19:13:15.078Z,0.00
2019-04-01T19:14:15.602Z,0.00
2019-04-01T19:15:15.399Z,0.00
2019-04-01T19:16:16.837Z,0.00
2019-04-01T19:17:16.792Z,0.00
2019-04-01T19:18:15.910Z,0.00
2019-04-01T19:19:16.040Z,0.00
2019-04-01T19:20:16.178Z,0.00
2019-04-01T19:21:16.302Z,0.00
2019-04-01T19:22:16.569Z,0.00
2019-04-01T19:23:16.616Z,0.00
2019-04-01T19:24:16.743Z,0.00
2019-04-01T19:25:16.895Z,0.00
2019-04-01T19:26:17.575Z,0.00
2019-04-01T19:27:17.233Z,0.00
2019-04-01T19:28:18.485Z,0.00
2019-04-01T19:29:17.538Z,0.00
2019-04-01T19:30:17.661Z,0.00
2019-04-01T19:31:18.567Z,0.00
2019-04-01T19:32:18.075Z,0.00
2019-04-01T19:33:18.226Z,0.00
2019-04-01T19:34:18.359Z,0.00
2019-04-01T19:35:18.496Z,0.00
2019-04-01T19:36:18.677Z,0.00
2019-04-01T19:37:18.921Z,0.00
2019-04-01T19:38:21.342Z,0.00
2019-04-01T19:39:20.244Z,0.00
2019-04-01T19:40:20.690Z,0.00
2019-04-01T19:41:20.638Z,0.00
2019-04-01T19:42:20.580Z,0.00
2019-04-01T19:43:20.583Z,0.00
2019-04-01T19:44:20.588Z,0.00
2019-04-01T19:45:20.099Z,0.00
2019-04-01T19:46:20.231Z,0.00
2019-04-01T19:47:21.366Z,0.00
2019-04-01T19:48:22.571Z,0.00
2019-04-01T19:49:21.091Z,0.00
2019-04-01T19:50:21.564Z,0.00
2019-04-01T19:51:21.191Z,0.00
2019-04-01T19:52:21.349Z,0.00
2019-04-01T19:53:21.495Z,0.00
2019-04-01T19:54:30.859Z,0.00
2019-04-01T19:55:23.781Z,0.00
2019-04-01T19:56:21.981Z,0.00
2019-04-01T19:57:22.589Z,0.00
2019-04-01T19:58:22.582Z,0.00
2019-04-01T19:59:25.855Z,0.00
2019-04-01T20:00:28.019Z,0.00
2019-04-01T20:01:25.021Z,0.00
2019-04-01T20:02:24.572Z,0.00
2019-04-01T20:03:25.363Z,0.00
2019-04-01T20:04:25.075Z,0.00
2019-04-01T20:05:23.573Z,0.00
2019-04-01T20:06:23.742Z,0.00
2019-04-01T20:07:23.934Z,0.00
2019-04-01T20:08:25.078Z,0.00
2019-04-01T20:09:24.383Z,0.00
2019-04-01T20:10:24.539Z,0.00
2019-04-01T20:11:24.698Z,0.00
2019-04-01T20:12:24.846Z,0.00
2019-04-01T20:13:25.023Z,0.00
2019-04-01T20:14:25.584Z,0.00
2019-04-01T20:15:26.075Z,0.00
2019-04-01T20:16:25.587Z,0.00
2019-04-01T20:17:25.781Z,0.00
2019-04-01T20:18:26.577Z,0.00
2019-04-01T20:19:26.588Z,0.00
2019-04-01T20:20:26.250Z,0.00
2019-04-01T20:21:28.105Z,0.00
2019-04-01T20:22:26.596Z,0.00
2019-04-01T20:23:26.775Z,0.00
2019-04-01T20:24:26.917Z,0.00
2019-04-01T20:25:27.098Z,0.00
2019-04-01T20:26:27.276Z,0.00
2019-04-01T20:27:28.103Z,0.00
2019-04-01T20:28:28.590Z,0.00
2019-04-01T20:29:30.318Z,0.00
2019-04-01T20:30:29.575Z,0.00
2019-04-01T20:31:28.245Z,0.00
2019-04-01T20:32:29.083Z,0.00
2019-04-01T20:33:31.648Z,0.00
2019-04-01T20:34:31.949Z,0.00
2019-04-01T20:35:29.066Z,0.00
2019-04-01T20:36:31.311Z,0.00
2019-04-01T20:37:29.621Z,0.00
2019-04-01T20:38:30.581Z,0.00
2019-04-01T20:39:30.584Z,0.00
2019-04-01T20:40:30.595Z,0.00
2019-04-01T20:41:30.597Z,0.00
2019-04-01T20:42:30.253Z,0.00
2019-04-01T20:43:30.418Z,0.00
2019-04-01T20:44:30.587Z,0.00
2019-04-01T20:45:31.590Z,0.00
2019-04-01T20:46:30.979Z,0.00
2019-04-01T20:47:31.131Z,0.00
2019-04-01T20:48:53.988Z,0.00
2019-04-01T20:49:32.429Z,0.00
2019-04-01T20:50:31.541Z,0.00
2019-04-01T20:51:32.583Z,0.00
2019-04-01T20:52:32.581Z,0.00
2019-04-01T20:53:32.093Z,0.00
2019-04-01T20:54:33.091Z,0.00
2019-04-01T20:55:32.459Z,0.00
2019-04-01T20:56:33.594Z,0.00
2019-04-01T20:57:32.815Z,0.00
2019-04-01T20:58:32.990Z,0.00
2019-04-01T20:59:33.143Z,0.00
2019-04-01T21:00:34.096Z,0.00
2019-04-01T21:01:35.172Z,0.00
2019-04-01T21:02:34.594Z,0.00
2019-04-01T21:03:33.834Z,0.00
2019-04-01T21:04:34.014Z,0.00
2019-04-01T21:05:34.173Z,0.00
2019-04-01T21:06:34.327Z,0.00
2019-04-01T21:07:34.475Z,0.00
2019-04-01T21:08:34.639Z,0.00
2019-04-01T21:09:34.786Z,0.00
2019-04-01T21:10:35.091Z,0.00
2019-04-01T21:11:35.122Z,0.00
2019-04-01T21:12:36.147Z,0.00
2019-04-01T21:13:35.523Z,0.00
2019-04-01T21:14:35.535Z,0.00
2019-04-01T21:15:35.689Z,0.00
2019-04-01T21:16:36.591Z,0.00
2019-04-01T21:17:36.019Z,0.00
2019-04-01T21:18:36.170Z,0.00
2019-04-01T21:19:36.326Z,0.00
2019-04-01T21:20:36.468Z,0.00
2019-04-01T21:21:36.650Z,0.00
2019-04-01T21:22:37.294Z,0.00
2019-04-01T21:23:37.001Z,0.00
2019-04-01T21:24:38.122Z,0.00
2019-04-01T21:25:38.096Z,0.00
2019-04-01T21:26:37.602Z,0.00
2019-04-01T21:27:38.593Z,0.00
2019-04-01T21:28:37.951Z,0.00
2019-04-01T21:29:38.601Z,0.00
2019-04-01T21:30:39.096Z,0.00
2019-04-01T21:31:38.481Z,0.00
2019-04-01T21:32:38.650Z,0.00
2019-04-01T21:33:38.775Z,0.00
2019-04-01T21:34:40.080Z,0.00
2019-04-01T21:35:39.155Z,0.00
2019-04-01T21:36:39.382Z,0.00
2019-04-01T21:37:40.603Z,0.00
2019-04-01T21:38:39.729Z,0.00
2019-04-01T21:39:40.588Z,0.00
2019-04-01T21:40:40.044Z,0.00
2019-04-01T21:41:40.180Z,0.00
2019-04-01T21:42:43.048Z,0.00
2019-04-01T21:43:41.598Z,0.00
2019-04-01T21:44:40.833Z,0.00
2019-04-01T21:45:40.960Z,0.00
2019-04-01T21:46:41.085Z,0.00
2019-04-01T21:47:41.677Z,0.00
2019-04-01T21:48:41.460Z,0.00
2019-04-01T21:49:41.605Z,0.00
2019-04-01T21:50:41.754Z,0.00
2019-04-01T21:51:41.883Z,0.00
2019-04-01T21:52:43.103Z,0.00
2019-04-01T21:53:42.225Z,0.00
2019-04-01T21:54:42.610Z,0.00
2019-04-01T21:55:42.612Z,0.00
2019-04-01T21:56:42.774Z,0.00
2019-04-01T21:57:42.939Z,0.00
2019-04-01T21:58:43.098Z,0.00
2019-04-01T21:59:43.259Z,0.00
2019-04-01T22:00:43.491Z,0.00
2019-04-01T22:01:43.543Z,0.00
2019-04-01T22:02:44.092Z,0.00
2019-04-01T22:03:45.597Z,0.00
2019-04-01T22:04:44.084Z,0.00
2019-04-01T22:05:44.259Z,0.00
2019-04-01T22:06:44.429Z,0.00
2019-04-01T22:07:45.099Z,0.00
2019-04-01T22:08:45.590Z,0.00
2019-04-01T22:09:44.894Z,0.00
2019-04-01T22:10:45.065Z,0.00
2019-04-01T22:11:45.607Z,0.00
2019-04-01T22:12:46.093Z,0.00
2019-04-01T22:13:46.647Z,0.00
2019-04-01T22:14:46.124Z,0.00
2019-04-01T22:15:46.601Z,0.00
2019-04-01T22:16:46.102Z,0.00
2019-04-01T22:17:46.392Z,0.00
2019-04-01T22:18:46.438Z,0.00
2019-04-01T22:19:46.612Z,0.00
2019-04-01T22:20:46.812Z,0.00
2019-04-01T22:21:47.595Z,0.00
2019-04-01T22:22:47.603Z,0.00
2019-04-01T22:23:47.221Z,0.00
2019-04-01T22:24:47.407Z,0.00
2019-04-01T22:25:47.621Z,0.00
2019-04-01T22:26:47.780Z,0.00
2019-04-01T22:27:48.616Z,0.00
2019-04-01T22:28:48.104Z,0.00
2019-04-01T22:29:48.930Z,0.00
2019-04-01T22:30:48.612Z,0.00
2019-04-01T22:31:49.600Z,0.00
2019-04-01T22:32:48.874Z,0.00
2019-04-01T22:33:48.994Z,0.00
2019-04-01T22:34:49.129Z,0.00
2019-04-01T22:35:50.108Z,0.00
2019-04-01T22:36:49.460Z,0.00
2019-04-01T22:37:49.619Z,0.00
2019-04-01T22:38:50.111Z,0.00
2019-04-01T22:39:50.010Z,0.00
2019-04-01T22:40:50.178Z,0.00
2019-04-01T22:41:50.296Z,0.00
2019-04-01T22:42:50.425Z,0.00
2019-04-01T22:43:50.583Z,0.00
2019-04-01T22:44:52.068Z,0.00
2019-04-01T22:45:50.864Z,0.00
2019-04-01T22:46:50.987Z,0.00
2019-04-01T22:47:51.149Z,0.00
2019-04-01T22:48:51.270Z,0.00
2019-04-01T22:49:51.401Z,0.00
2019-04-01T22:50:51.537Z,0.00
2019-04-01T22:51:52.612Z,0.00
2019-04-01T22:52:51.870Z,0.00
2019-04-01T22:53:51.964Z,0.00
2019-04-01T22:54:52.219Z,0.00
2019-04-01T22:55:52.371Z,0.00
2019-04-01T22:56:52.515Z,0.00
2019-04-01T22:57:53.266Z,0.00
2019-04-01T22:58:52.800Z,0.00
2019-04-01T22:59:53.044Z,0.00
2019-04-01T23:00:54.115Z,0.00
2019-04-01T23:01:54.107Z,0.00
2019-04-01T23:02:54.138Z,0.00
2019-04-01T23:03:53.613Z,0.00
2019-04-01T23:04:53.871Z,0.00